createdAt,value
2022-09-06T00:00:01.437Z,4.78
2022-09-06T00:02:33.201Z,4.07
2022-09-06T00:05:00.824Z,4.43
2022-09-06T00:07:28.544Z,5.25
2022-09-06T00:09:57.067Z,4.90
2022-09-06T00:12:25.315Z,4.85
2022-09-06T00:14:52.951Z,4.35
2022-09-06T00:17:20.592Z,4.85
2022-09-06T00:19:48.183Z,5.10
2022-09-06T00:22:15.770Z,5.35
2022-09-06T00:24:43.470Z,4.63
2022-09-06T00:27:11.276Z,4.70
2022-09-06T00:29:38.934Z,4.32
2022-09-06T00:32:06.616Z,4.90
2022-09-06T00:34:34.284Z,5.03
2022-09-06T00:37:01.928Z,5.03
2022-09-06T00:39:29.583Z,4.72
2022-09-06T00:41:57.238Z,5.30
2022-09-06T00:44:24.891Z,4.18
2022-09-06T00:46:53.519Z,5.13
2022-09-06T00:49:29.425Z,4.75
2022-09-06T00:52:02.548Z,4.55
2022-09-06T00:54:30.466Z,4.90
2022-09-06T00:56:58.655Z,5.25
2022-09-06T00:59:27.809Z,4.70
2022-09-06T01:01:55.524Z,4.82
2022-09-06T01:04:23.522Z,4.63
2022-09-06T01:06:58.130Z,4.80
2022-09-06T01:09:25.695Z,5.13
2022-09-06T01:12:06.828Z,5.15
2022-09-06T01:14:40.536Z,4.63
2022-09-06T01:17:08.162Z,5.57
2022-09-06T01:19:54.497Z,4.75
2022-09-06T01:22:40.725Z,4.95
2022-09-06T01:25:18.903Z,4.45
2022-09-06T01:27:49.381Z,5.05
2022-09-06T01:30:19.223Z,4.85
2022-09-06T01:32:46.877Z,4.82
2022-09-06T01:35:33.072Z,4.78
2022-09-06T01:38:01.016Z,5.30
2022-09-06T01:40:28.992Z,5.18
2022-09-06T01:42:58.321Z,4.45
2022-09-06T01:45:36.513Z,4.85
2022-09-06T01:48:30.379Z,5.10
2022-09-06T01:51:16.193Z,4.82
2022-09-06T01:53:43.765Z,4.97
2022-09-06T01:56:30.248Z,4.80
2022-09-06T01:58:57.864Z,4.57
2022-09-06T02:01:43.624Z,4.82
2022-09-06T02:04:14.301Z,4.68
2022-09-06T02:06:44.575Z,4.18
2022-09-06T02:09:14.956Z,4.78
2022-09-06T02:11:59.409Z,4.63
2022-09-06T02:14:33.816Z,4.65
2022-09-06T02:17:01.994Z,4.30
2022-09-06T02:19:37.923Z,4.85
2022-09-06T02:22:08.118Z,4.82
2022-09-06T02:24:37.207Z,4.55
2022-09-06T02:27:05.076Z,4.43
2022-09-06T02:29:32.711Z,4.45
2022-09-06T02:32:04.570Z,4.80
2022-09-06T02:37:00.963Z,4.88
2022-09-06T02:39:28.636Z,4.18
2022-09-06T02:41:56.349Z,4.20
2022-09-06T02:44:24.972Z,4.72
2022-09-06T02:46:56.800Z,4.82
2022-09-06T02:49:25.138Z,4.70
2022-09-06T02:51:52.764Z,4.40
2022-09-06T02:54:20.336Z,4.28
2022-09-06T02:56:52.008Z,4.15
2022-09-06T02:59:19.980Z,4.28
2022-09-06T03:01:47.574Z,4.43
2022-09-06T03:04:15.177Z,4.70
2022-09-06T03:06:42.810Z,3.88
2022-09-06T03:09:10.558Z,4.10
2022-09-06T03:11:38.787Z,4.18
2022-09-06T03:14:06.428Z,4.07
2022-09-06T03:16:34.121Z,3.95
2022-09-06T03:19:01.789Z,4.05
2022-09-06T03:21:29.397Z,3.83
2022-09-06T03:23:58.965Z,3.88
2022-09-06T03:26:26.635Z,3.97
2022-09-06T03:28:54.390Z,4.35
2022-09-06T03:31:22.006Z,4.30
2022-09-06T03:33:49.584Z,3.78
2022-09-06T03:36:17.304Z,4.13
2022-09-06T03:38:44.943Z,4.72
2022-09-06T03:41:12.645Z,4.32
2022-09-06T03:43:40.239Z,4.30
2022-09-06T03:46:07.958Z,4.95
2022-09-06T03:48:35.786Z,4.55
2022-09-06T03:51:03.398Z,4.15
2022-09-06T03:53:31.104Z,4.50
2022-09-06T03:55:58.998Z,4.32
2022-09-06T03:58:30.190Z,4.50
2022-09-06T04:01:02.093Z,4.20
2022-09-06T04:03:29.812Z,4.53
2022-09-06T04:05:57.440Z,4.50
2022-09-06T04:08:25.099Z,4.80
2022-09-06T04:10:56.347Z,4.15
2022-09-06T04:13:24.632Z,4.70
2022-09-06T04:15:52.952Z,4.10
2022-09-06T04:18:20.729Z,3.97
2022-09-06T04:20:49.597Z,4.68
2022-09-06T04:23:17.735Z,4.47
2022-09-06T04:25:48.845Z,4.65
2022-09-06T04:28:18.200Z,4.32
2022-09-06T04:30:46.450Z,4.20
2022-09-06T04:33:14.014Z,4.07
2022-09-06T04:35:41.658Z,4.05
2022-09-06T04:38:09.266Z,4.10
2022-09-06T04:40:36.852Z,4.57
2022-09-06T04:43:04.451Z,4.75
2022-09-06T04:45:32.105Z,4.60
2022-09-06T04:47:59.744Z,4.72
2022-09-06T04:50:27.349Z,4.85
2022-09-06T04:53:05.711Z,4.55
2022-09-06T04:55:33.922Z,4.85
2022-09-06T04:58:03.369Z,4.10
2022-09-06T05:00:32.378Z,3.90
2022-09-06T05:03:00.084Z,4.35
2022-09-06T05:05:27.687Z,4.30
2022-09-06T05:07:55.778Z,5.03
2022-09-06T05:10:23.920Z,4.80
2022-09-06T05:12:52.558Z,4.28
2022-09-06T05:15:20.902Z,4.25
2022-09-06T05:17:48.521Z,4.55
2022-09-06T05:20:16.284Z,4.95
2022-09-06T05:22:43.998Z,4.78
2022-09-06T05:25:11.605Z,4.40
2022-09-06T05:27:39.291Z,4.20
2022-09-06T05:30:07.114Z,4.28
2022-09-06T05:32:34.700Z,4.20
2022-09-06T05:35:02.402Z,4.50
2022-09-06T05:37:29.992Z,4.40
2022-09-06T05:40:00.123Z,4.97
2022-09-06T05:42:28.007Z,4.93
2022-09-06T05:44:55.597Z,4.00
2022-09-06T05:47:23.242Z,4.15
2022-09-06T05:49:51.949Z,4.22
2022-09-06T05:52:19.790Z,3.95
2022-09-06T05:54:47.433Z,3.63
2022-09-06T05:57:15.055Z,3.90
2022-09-06T05:59:42.698Z,3.90
2022-09-06T06:02:10.371Z,3.70
2022-09-06T06:04:38.060Z,3.50
2022-09-06T06:07:05.668Z,3.78
2022-09-06T06:09:33.383Z,3.60
2022-09-06T06:12:00.977Z,3.33
2022-09-06T06:14:28.756Z,3.55
2022-09-06T06:16:56.421Z,3.97
2022-09-06T06:19:24.075Z,3.60
2022-09-06T06:21:51.696Z,3.35
2022-09-06T06:24:20.305Z,3.53
2022-09-06T06:26:47.954Z,3.05
2022-09-06T06:29:16.654Z,3.33
2022-09-06T06:31:44.385Z,3.58
2022-09-06T06:34:12.061Z,3.65
2022-09-06T06:36:39.722Z,3.42
2022-09-06T06:39:08.578Z,3.30
2022-09-06T06:41:36.489Z,3.45
2022-09-06T06:44:07.126Z,3.25
2022-09-06T06:46:36.063Z,3.42
2022-09-06T06:49:03.710Z,3.33
2022-09-06T06:51:32.217Z,3.47
2022-09-06T06:53:59.984Z,3.42
2022-09-06T06:56:27.639Z,2.95
2022-09-06T06:58:59.557Z,3.15
2022-09-06T07:03:54.898Z,3.00
2022-09-06T07:09:10.700Z,2.80
2022-09-06T07:11:38.383Z,3.03
2022-09-06T07:14:05.951Z,2.63
2022-09-06T07:16:33.599Z,2.47
2022-09-06T07:19:01.665Z,2.30
2022-09-06T07:24:08.243Z,2.25
2022-09-06T07:26:37.725Z,2.30
2022-09-06T07:29:06.202Z,2.20
2022-09-06T07:34:22.219Z,2.00
2022-09-06T07:36:52.993Z,2.10
2022-09-06T07:39:20.742Z,2.08
2022-09-06T07:41:48.341Z,2.13
2022-09-06T07:44:16.102Z,2.10
2022-09-06T07:46:43.746Z,2.05
2022-09-06T07:49:11.400Z,2.10
2022-09-06T07:51:39.040Z,2.08
2022-09-06T07:54:29.441Z,2.10
2022-09-06T07:56:55.356Z,2.20
2022-09-06T07:59:23.135Z,2.33
2022-09-06T08:01:50.887Z,2.13
2022-09-06T08:04:18.558Z,2.38
2022-09-06T08:09:36.102Z,1.58
2022-09-06T08:12:07.021Z,2.33
2022-09-06T08:14:35.582Z,1.88
2022-09-06T08:17:03.863Z,1.85
2022-09-06T08:19:31.456Z,1.95
2022-09-06T08:21:59.158Z,2.03
2022-09-06T08:24:26.879Z,1.90
2022-09-06T08:26:54.698Z,1.77
2022-09-06T08:29:22.334Z,2.00
2022-09-06T08:31:50.061Z,2.00
2022-09-06T08:34:17.771Z,1.77
2022-09-06T08:36:45.871Z,1.90
2022-09-06T08:39:13.500Z,1.95
2022-09-06T08:41:41.083Z,1.80
2022-09-06T08:47:04.570Z,1.50
2022-09-06T08:49:35.290Z,1.63
2022-09-06T08:52:11.975Z,1.30
2022-09-06T08:54:48.841Z,1.83
2022-09-06T08:57:26.763Z,1.50
2022-09-06T08:59:56.147Z,1.50
2022-09-06T09:02:23.790Z,1.60
2022-09-06T09:04:56.419Z,1.48
2022-09-06T09:07:43.034Z,1.20
2022-09-06T09:10:13.203Z,1.38
2022-09-06T09:12:45.465Z,1.20
2022-09-06T09:15:14.118Z,1.55
2022-09-06T09:17:42.048Z,1.40
2022-09-06T09:20:10.564Z,1.45
2022-09-06T09:22:39.229Z,1.33
2022-09-06T09:25:07.989Z,1.35
2022-09-06T09:27:37.332Z,1.30
2022-09-06T09:32:54.415Z,1.17
2022-09-06T09:35:33.823Z,1.48
2022-09-06T09:38:11.824Z,1.33
2022-09-06T09:40:41.813Z,1.10
2022-09-06T09:43:11.543Z,1.10
2022-09-06T09:45:39.174Z,1.30
2022-09-06T09:48:27.048Z,1.00
2022-09-06T09:50:56.104Z,1.17
2022-09-06T09:53:26.069Z,0.93
2022-09-06T09:55:57.643Z,0.93
2022-09-06T09:58:25.354Z,0.98
2022-09-06T10:01:09.855Z,1.00
2022-09-06T10:09:19.193Z,1.02
2022-09-06T10:11:54.912Z,1.05
2022-09-06T10:14:32.475Z,0.85
2022-09-06T10:17:00.619Z,0.98
2022-09-06T10:19:34.069Z,1.20
2022-09-06T10:22:04.689Z,1.20
2022-09-06T10:24:48.282Z,1.00
2022-09-06T10:27:18.322Z,1.00
2022-09-06T10:29:47.858Z,1.15
2022-09-06T10:32:33.653Z,1.10
2022-09-06T10:35:07.499Z,1.10
2022-09-06T10:37:42.619Z,1.33
2022-09-06T10:40:11.904Z,1.00
2022-09-06T10:42:55.393Z,1.10
2022-09-06T10:45:35.305Z,1.17
2022-09-06T10:48:14.751Z,1.30
2022-09-06T10:50:46.017Z,1.20
2022-09-06T10:53:17.149Z,1.23
2022-09-06T10:55:48.045Z,1.23
2022-09-06T10:58:20.401Z,1.20
2022-09-06T11:00:50.122Z,1.25
2022-09-06T11:06:13.829Z,1.30
2022-09-06T11:08:47.402Z,1.08
2022-09-06T11:11:24.942Z,1.27
2022-09-06T11:13:52.651Z,1.30
2022-09-06T11:16:23.854Z,1.20
2022-09-06T11:18:51.722Z,1.27
2022-09-06T11:21:34.578Z,1.60
2022-09-06T11:24:02.154Z,1.10
2022-09-06T11:26:41.152Z,1.50
2022-09-06T11:29:19.206Z,1.77
2022-09-06T11:34:43.999Z,1.70
2022-09-06T11:37:24.644Z,1.50
2022-09-06T11:42:52.904Z,1.70
2022-09-06T11:45:40.801Z,1.58
2022-09-06T11:48:23.544Z,1.50
2022-09-06T11:50:54.234Z,2.05
2022-09-06T11:53:23.013Z,1.77
2022-09-06T11:55:52.368Z,1.90
2022-09-06T11:58:37.232Z,1.70
2022-09-06T12:01:13.874Z,2.13
2022-09-06T12:06:37.500Z,1.60
2022-09-06T12:09:25.017Z,1.80
2022-09-06T12:11:53.358Z,1.77
2022-09-06T12:14:35.943Z,1.85
2022-09-06T12:17:07.556Z,1.88
2022-09-06T12:19:44.817Z,2.03
2022-09-06T12:22:42.051Z,1.77
2022-09-06T12:25:29.522Z,2.40
2022-09-06T12:27:58.333Z,2.08
2022-09-06T12:30:42.041Z,2.10
2022-09-06T12:33:36.251Z,2.28
2022-09-06T12:36:21.430Z,1.90
2022-09-06T12:38:56.878Z,1.92
2022-09-06T12:41:25.434Z,1.70
2022-09-06T12:43:58.357Z,2.05
2022-09-06T12:46:26.623Z,2.60
2022-09-06T12:49:01.482Z,1.90
2022-09-06T12:51:29.088Z,1.65
2022-09-06T12:54:04.119Z,1.90
2022-09-06T12:56:35.675Z,2.20
2022-09-06T12:59:20.147Z,1.70
2022-09-06T13:01:56.585Z,2.00
2022-09-06T13:04:32.290Z,2.10
2022-09-06T13:07:01.084Z,2.00
2022-09-06T13:09:29.925Z,1.88
2022-09-06T13:12:03.740Z,1.85
2022-09-06T13:14:32.973Z,1.90
2022-09-06T13:17:01.070Z,1.90
2022-09-06T13:19:31.670Z,1.92
2022-09-06T13:21:59.599Z,1.85
2022-09-06T13:24:33.287Z,2.50
2022-09-06T13:27:01.172Z,2.08
2022-09-06T13:29:33.212Z,1.80
2022-09-06T13:32:03.398Z,2.17
2022-09-06T13:34:32.248Z,1.80
2022-09-06T13:37:09.921Z,1.70
2022-09-06T13:39:38.686Z,2.50
2022-09-06T13:42:07.767Z,2.33
2022-09-06T13:44:36.431Z,2.35
2022-09-06T13:47:04.593Z,1.83
2022-09-06T13:49:32.749Z,2.40
2022-09-06T13:52:01.993Z,2.30
2022-09-06T13:54:30.664Z,2.13
2022-09-06T13:56:58.343Z,2.58
2022-09-06T13:59:26.156Z,2.22
2022-09-06T14:01:57.627Z,2.20
2022-09-06T14:04:25.489Z,2.47
2022-09-06T14:06:54.031Z,1.88
2022-09-06T14:09:21.829Z,2.25
2022-09-06T14:11:49.451Z,1.95
2022-09-06T14:14:17.874Z,2.33
2022-09-06T14:16:46.181Z,2.28
2022-09-06T14:19:14.246Z,2.30
2022-09-06T14:21:42.026Z,1.88
2022-09-06T14:24:09.974Z,2.03
2022-09-06T14:26:38.559Z,2.15
2022-09-06T14:29:06.469Z,2.30
2022-09-06T14:31:34.119Z,2.40
2022-09-06T14:34:02.492Z,2.10
2022-09-06T14:36:31.467Z,2.00
2022-09-06T14:39:00.180Z,2.00
2022-09-06T14:41:27.855Z,2.00
2022-09-06T14:43:57.011Z,2.42
2022-09-06T14:46:26.936Z,2.75
2022-09-06T14:48:58.716Z,2.20
2022-09-06T14:51:26.657Z,2.15
2022-09-06T14:53:55.541Z,2.00
2022-09-06T14:56:23.733Z,2.53
2022-09-06T14:58:51.387Z,2.80
2022-09-06T15:01:23.454Z,2.95
2022-09-06T15:03:52.942Z,2.22
2022-09-06T15:06:22.203Z,2.30
2022-09-06T15:08:49.955Z,2.50
2022-09-06T15:11:36.260Z,2.40
2022-09-06T15:14:04.814Z,2.22
2022-09-06T15:16:32.994Z,2.42
2022-09-06T15:19:02.915Z,2.38
2022-09-06T15:21:31.717Z,1.92
2022-09-06T15:24:00.309Z,2.35
2022-09-06T15:26:28.565Z,2.15
2022-09-06T15:28:56.532Z,2.83
2022-09-06T15:31:24.242Z,2.70
2022-09-06T15:33:52.760Z,2.08
2022-09-06T15:36:21.803Z,2.00
2022-09-06T15:38:50.430Z,1.80
2022-09-06T15:41:20.055Z,1.98
2022-09-06T15:43:48.579Z,2.33
2022-09-06T15:46:17.442Z,2.35
2022-09-06T15:48:46.614Z,2.30
2022-09-06T15:51:15.904Z,2.20
2022-09-06T15:53:43.952Z,2.33
2022-09-06T15:56:13.793Z,2.33
2022-09-06T15:58:41.423Z,1.95
2022-09-06T16:01:13.009Z,1.98
2022-09-06T16:06:27.878Z,1.73
2022-09-06T16:09:01.070Z,2.05
2022-09-06T16:11:30.161Z,1.77
2022-09-06T16:13:57.766Z,2.08
2022-09-06T16:16:25.725Z,2.10
2022-09-06T16:18:53.420Z,2.33
2022-09-06T16:21:25.036Z,2.28
2022-09-06T16:26:21.681Z,2.22
2022-09-06T16:28:50.322Z,2.10
2022-09-06T16:31:18.473Z,1.90
2022-09-06T16:33:47.428Z,2.30
2022-09-06T16:36:15.604Z,2.20
2022-09-06T16:38:43.564Z,2.65
2022-09-06T16:41:11.208Z,2.20
2022-09-06T16:43:39.188Z,1.95
2022-09-06T16:46:07.232Z,1.98
2022-09-06T16:48:35.230Z,2.83
2022-09-06T16:51:09.886Z,2.00
2022-09-06T16:53:37.754Z,1.77
2022-09-06T16:56:05.687Z,2.00
2022-09-06T16:58:33.393Z,2.08
2022-09-06T17:01:01.077Z,2.22
2022-09-06T17:03:29.003Z,2.08
2022-09-06T17:05:56.667Z,2.33
2022-09-06T17:08:25.088Z,2.47
2022-09-06T17:10:52.804Z,2.25
2022-09-06T17:13:20.609Z,2.30
2022-09-06T17:16:13.306Z,2.38
2022-09-06T17:18:41.120Z,2.15
2022-09-06T17:21:08.798Z,2.38
2022-09-06T17:23:36.776Z,2.25
2022-09-06T17:26:04.910Z,2.90
2022-09-06T17:28:36.619Z,2.75
2022-09-06T17:33:32.368Z,2.55
2022-09-06T17:36:07.243Z,2.50
2022-09-06T17:38:36.179Z,2.42
2022-09-06T17:41:03.828Z,2.63
2022-09-06T17:43:32.420Z,2.60
2022-09-06T17:46:00.123Z,2.65
2022-09-06T17:48:28.867Z,2.80
2022-09-06T17:50:56.814Z,2.65
2022-09-06T17:53:24.456Z,2.75
2022-09-06T17:55:52.239Z,3.58
2022-09-06T17:58:20.151Z,3.45
2022-09-06T18:00:48.095Z,2.92
2022-09-06T18:03:15.752Z,3.03
2022-09-06T18:05:44.154Z,2.97
2022-09-06T18:08:12.963Z,2.95
2022-09-06T18:10:40.582Z,3.08
2022-09-06T18:13:08.367Z,2.60
2022-09-06T18:15:39.887Z,2.88
2022-09-06T18:18:07.581Z,2.70
2022-09-06T18:20:35.210Z,3.20
2022-09-06T18:23:02.997Z,3.33
2022-09-06T18:25:30.882Z,3.17
2022-09-06T18:27:58.528Z,3.00
2022-09-06T18:30:26.175Z,3.03
2022-09-06T18:32:53.806Z,2.90
2022-09-06T18:35:21.413Z,3.50
2022-09-06T18:37:49.100Z,2.70
2022-09-06T18:40:16.731Z,3.05
2022-09-06T18:42:44.642Z,3.03
2022-09-06T18:45:12.288Z,2.83
2022-09-06T18:47:39.904Z,3.10
2022-09-06T18:50:08.010Z,3.22
2022-09-06T18:52:35.894Z,3.38
2022-09-06T18:55:03.572Z,3.10
2022-09-06T18:57:31.186Z,3.63
2022-09-06T18:59:58.819Z,3.30
2022-09-06T19:02:28.431Z,3.45
2022-09-06T19:04:59.073Z,3.28
2022-09-06T19:07:29.452Z,3.42
2022-09-06T19:09:57.787Z,3.42
2022-09-06T19:12:25.459Z,3.13
2022-09-06T19:14:53.113Z,3.75
2022-09-06T19:17:20.843Z,3.97
2022-09-06T19:19:48.432Z,4.32
2022-09-06T19:22:17.247Z,3.92
2022-09-06T19:24:44.874Z,4.25
2022-09-06T19:27:12.521Z,3.80
2022-09-06T19:29:40.161Z,3.95
2022-09-06T19:32:08.156Z,3.60
2022-09-06T19:34:35.899Z,4.38
2022-09-06T19:37:03.530Z,3.55
2022-09-06T19:39:36.756Z,3.80
2022-09-06T19:42:04.976Z,3.88
2022-09-06T19:44:33.392Z,3.85
2022-09-06T19:47:01.141Z,4.00
2022-09-06T19:49:30.697Z,3.97
2022-09-06T19:51:58.410Z,4.18
2022-09-06T19:54:26.069Z,4.00
2022-09-06T19:56:53.736Z,4.03
2022-09-06T19:59:21.541Z,4.25
2022-09-06T20:01:49.457Z,4.10
2022-09-06T20:04:17.223Z,4.47
2022-09-06T20:06:45.097Z,4.60
2022-09-06T20:09:13.254Z,3.85
2022-09-06T20:11:41.770Z,4.03
2022-09-06T20:14:10.308Z,4.03
2022-09-06T20:16:41.454Z,4.60
2022-09-06T20:19:09.700Z,4.10
2022-09-06T20:21:37.310Z,4.20
2022-09-06T20:24:05.073Z,3.47
2022-09-06T20:26:32.791Z,4.50
2022-09-06T20:29:01.825Z,4.07
2022-09-06T20:31:30.818Z,4.13
2022-09-06T20:34:02.591Z,4.55
2022-09-06T20:36:30.570Z,4.00
2022-09-06T20:38:58.261Z,3.83
2022-09-06T20:41:26.632Z,4.15
2022-09-06T20:43:58.390Z,3.80
2022-09-06T20:46:28.366Z,3.92
2022-09-06T20:48:57.765Z,3.67
2022-09-06T20:51:25.510Z,3.42
2022-09-06T20:54:00.450Z,3.72
2022-09-06T20:56:30.199Z,3.42
2022-09-06T20:59:02.467Z,3.67
2022-09-06T21:01:35.026Z,4.10
2022-09-06T21:04:03.991Z,3.47
2022-09-06T21:06:34.400Z,3.53
2022-09-06T21:09:03.095Z,3.28
2022-09-06T21:11:30.761Z,2.95
2022-09-06T21:13:58.991Z,3.03
2022-09-06T21:16:28.246Z,3.03
2022-09-06T21:19:00.293Z,3.20
2022-09-06T21:21:28.510Z,3.20
2022-09-06T21:23:56.151Z,3.03
2022-09-06T21:26:24.012Z,3.00
2022-09-06T21:28:51.866Z,2.65
2022-09-06T21:31:22.153Z,3.13
2022-09-06T21:33:52.577Z,3.10
2022-09-06T21:36:21.682Z,2.90
2022-09-06T21:38:50.698Z,2.97
2022-09-06T21:41:18.879Z,3.63
2022-09-06T21:43:46.842Z,2.92
2022-09-06T21:46:16.891Z,2.88
2022-09-06T21:48:45.715Z,3.20
2022-09-06T21:51:16.332Z,2.70
2022-09-06T21:53:45.880Z,3.00
2022-09-06T21:56:13.934Z,3.25
2022-09-06T21:58:41.595Z,3.30
2022-09-06T22:01:09.459Z,2.97
2022-09-06T22:03:40.137Z,3.00
2022-09-06T22:06:10.766Z,3.20
2022-09-06T22:08:38.976Z,3.47
2022-09-06T22:11:14.299Z,3.00
2022-09-06T22:13:42.331Z,3.33
2022-09-06T22:16:10.349Z,3.20
2022-09-06T22:18:38.235Z,3.33
2022-09-06T22:21:13.172Z,2.97
2022-09-06T22:23:40.813Z,3.10
2022-09-06T22:26:10.234Z,3.00
2022-09-06T22:28:38.434Z,3.60
2022-09-06T22:31:06.186Z,3.85
2022-09-06T22:33:34.083Z,3.65
2022-09-06T22:36:02.069Z,3.15
2022-09-06T22:38:30.443Z,3.53
2022-09-06T22:40:58.371Z,3.55
2022-09-06T22:43:26.427Z,3.42
2022-09-06T22:45:55.214Z,3.70
2022-09-06T22:48:22.867Z,3.75
2022-09-06T22:50:50.601Z,3.30
2022-09-06T22:53:18.970Z,3.70
2022-09-06T22:55:49.393Z,3.70
2022-09-06T22:58:17.011Z,4.03
2022-09-06T23:00:44.860Z,3.72
2022-09-06T23:03:12.575Z,3.72
2022-09-06T23:05:40.248Z,3.35
2022-09-06T23:08:07.983Z,3.72
2022-09-06T23:10:40.130Z,3.78
2022-09-06T23:13:08.044Z,3.28
2022-09-06T23:15:36.474Z,4.40
2022-09-06T23:18:04.261Z,3.78
2022-09-06T23:20:32.595Z,3.90
2022-09-06T23:23:00.202Z,4.35
2022-09-06T23:25:27.832Z,3.80
2022-09-06T23:27:55.438Z,4.35
2022-09-06T23:30:23.154Z,3.72
2022-09-06T23:32:50.820Z,4.00
2022-09-06T23:35:18.466Z,4.20
2022-09-06T23:37:46.073Z,4.25
2022-09-06T23:40:14.956Z,3.97
2022-09-06T23:42:42.666Z,4.30
2022-09-06T23:45:10.533Z,3.95
2022-09-06T23:47:38.171Z,4.50
2022-09-06T23:50:07.167Z,3.88
2022-09-06T23:52:34.769Z,4.30
2022-09-06T23:55:03.295Z,4.20
2022-09-06T23:57:31.025Z,3.88
2022-09-06T23:59:58.607Z,4.25
